sensor_id;sensor_type;location;lat;lon;timestamp;P1;durP1;ratioP1;P2;durP2;ratioP2
18407;SDS011;9330;52.210;21.174;2024-01-25T00:00:53;9.23;;;2.67;;
18407;SDS011;9330;52.210;21.174;2024-01-25T00:03:20;9.93;;;2.80;;
18407;SDS011;9330;52.210;21.174;2024-01-25T00:05:47;7.90;;;2.75;;
18407;SDS011;9330;52.210;21.174;2024-01-25T00:08:15;7.75;;;2.90;;
18407;SDS011;9330;52.210;21.174;2024-01-25T00:10:42;9.95;;;2.80;;
18407;SDS011;9330;52.210;21.174;2024-01-25T00:13:09;8.48;;;3.30;;
18407;SDS011;9330;52.210;21.174;2024-01-25T00:15:36;7.90;;;2.65;;
18407;SDS011;9330;52.210;21.174;2024-01-25T00:18:03;11.32;;;3.88;;
18407;SDS011;9330;52.210;21.174;2024-01-25T00:20:30;12.90;;;4.43;;
18407;SDS011;9330;52.210;21.174;2024-01-25T00:22:57;6.43;;;3.05;;
18407;SDS011;9330;52.210;21.174;2024-01-25T00:25:25;6.78;;;2.47;;
18407;SDS011;9330;52.210;21.174;2024-01-25T00:27:52;5.18;;;1.95;;
18407;SDS011;9330;52.210;21.174;2024-01-25T00:30:19;7.57;;;1.77;;
18407;SDS011;9330;52.210;21.174;2024-01-25T00:32:46;7.13;;;1.92;;
18407;SDS011;9330;52.210;21.174;2024-01-25T00:35:13;5.20;;;1.65;;
18407;SDS011;9330;52.210;21.174;2024-01-25T00:37:41;8.40;;;1.48;;
18407;SDS011;9330;52.210;21.174;2024-01-25T00:40:08;5.95;;;1.92;;
18407;SDS011;9330;52.210;21.174;2024-01-25T00:42:40;4.95;;;1.63;;
18407;SDS011;9330;52.210;21.174;2024-01-25T00:45:09;6.43;;;2.00;;
18407;SDS011;9330;52.210;21.174;2024-01-25T00:47:37;4.55;;;1.40;;
18407;SDS011;9330;52.210;21.174;2024-01-25T00:50:05;4.45;;;1.20;;
18407;SDS011;9330;52.210;21.174;2024-01-25T00:52:32;5.90;;;1.50;;
18407;SDS011;9330;52.210;21.174;2024-01-25T00:55:01;2.25;;;1.10;;
18407;SDS011;9330;52.210;21.174;2024-01-25T00:57:28;6.18;;;1.80;;
18407;SDS011;9330;52.210;21.174;2024-01-25T00:59:57;4.15;;;1.83;;
18407;SDS011;9330;52.210;21.174;2024-01-25T01:02:25;7.20;;;1.90;;
18407;SDS011;9330;52.210;21.174;2024-01-25T01:04:56;5.30;;;1.67;;
18407;SDS011;9330;52.210;21.174;2024-01-25T01:07:23;6.32;;;2.05;;
18407;SDS011;9330;52.210;21.174;2024-01-25T01:09:50;5.15;;;2.00;;
18407;SDS011;9330;52.210;21.174;2024-01-25T01:12:17;10.05;;;2.67;;
18407;SDS011;9330;52.210;21.174;2024-01-25T01:14:44;8.43;;;2.85;;
18407;SDS011;9330;52.210;21.174;2024-01-25T01:17:12;9.30;;;2.67;;
18407;SDS011;9330;52.210;21.174;2024-01-25T01:19:39;9.10;;;2.72;;
18407;SDS011;9330;52.210;21.174;2024-01-25T01:22:06;9.98;;;2.00;;
18407;SDS011;9330;52.210;21.174;2024-01-25T01:27:55;7.75;;;2.63;;
18407;SDS011;9330;52.210;21.174;2024-01-25T01:30:22;9.35;;;2.85;;
18407;SDS011;9330;52.210;21.174;2024-01-25T01:32:50;7.82;;;2.40;;
18407;SDS011;9330;52.210;21.174;2024-01-25T01:35:17;10.18;;;3.15;;
18407;SDS011;9330;52.210;21.174;2024-01-25T01:37:44;10.82;;;2.85;;
18407;SDS011;9330;52.210;21.174;2024-01-25T01:40:10;13.55;;;3.22;;
18407;SDS011;9330;52.210;21.174;2024-01-25T01:42:38;7.03;;;2.47;;
18407;SDS011;9330;52.210;21.174;2024-01-25T01:45:05;10.07;;;2.60;;
18407;SDS011;9330;52.210;21.174;2024-01-25T01:47:32;9.75;;;2.88;;
18407;SDS011;9330;52.210;21.174;2024-01-25T01:50:01;10.15;;;3.13;;
18407;SDS011;9330;52.210;21.174;2024-01-25T01:52:28;8.23;;;2.72;;
18407;SDS011;9330;52.210;21.174;2024-01-25T01:54:56;11.27;;;3.65;;
18407;SDS011;9330;52.210;21.174;2024-01-25T01:57:23;13.25;;;2.60;;
18407;SDS011;9330;52.210;21.174;2024-01-25T01:59:50;9.43;;;2.67;;
18407;SDS011;9330;52.210;21.174;2024-01-25T02:02:17;11.32;;;3.35;;
18407;SDS011;9330;52.210;21.174;2024-01-25T02:04:44;10.55;;;2.92;;
18407;SDS011;9330;52.210;21.174;2024-01-25T02:07:12;11.38;;;2.75;;
18407;SDS011;9330;52.210;21.174;2024-01-25T02:09:39;11.15;;;2.67;;
18407;SDS011;9330;52.210;21.174;2024-01-25T02:12:06;10.32;;;3.35;;
18407;SDS011;9330;52.210;21.174;2024-01-25T02:14:33;10.25;;;3.00;;
18407;SDS011;9330;52.210;21.174;2024-01-25T02:17:00;10.65;;;2.83;;
18407;SDS011;9330;52.210;21.174;2024-01-25T02:19:26;8.50;;;2.58;;
18407;SDS011;9330;52.210;21.174;2024-01-25T02:21:53;9.77;;;2.72;;
18407;SDS011;9330;52.210;21.174;2024-01-25T02:24:23;21.00;;;3.10;;
18407;SDS011;9330;52.210;21.174;2024-01-25T02:26:50;10.63;;;2.38;;
18407;SDS011;9330;52.210;21.174;2024-01-25T02:29:16;10.82;;;2.70;;
18407;SDS011;9330;52.210;21.174;2024-01-25T02:31:43;9.68;;;2.72;;
18407;SDS011;9330;52.210;21.174;2024-01-25T02:34:10;10.05;;;2.63;;
18407;SDS011;9330;52.210;21.174;2024-01-25T02:36:37;10.63;;;2.70;;
18407;SDS011;9330;52.210;21.174;2024-01-25T02:39:04;8.73;;;2.90;;
18407;SDS011;9330;52.210;21.174;2024-01-25T02:41:32;11.00;;;2.88;;
18407;SDS011;9330;52.210;21.174;2024-01-25T02:43:59;10.60;;;3.13;;
18407;SDS011;9330;52.210;21.174;2024-01-25T02:46:26;14.52;;;3.10;;
18407;SDS011;9330;52.210;21.174;2024-01-25T02:48:53;14.88;;;3.75;;
18407;SDS011;9330;52.210;21.174;2024-01-25T02:51:20;9.27;;;3.22;;
18407;SDS011;9330;52.210;21.174;2024-01-25T02:53:46;16.08;;;3.40;;
18407;SDS011;9330;52.210;21.174;2024-01-25T02:56:13;12.88;;;3.28;;
18407;SDS011;9330;52.210;21.174;2024-01-25T02:58:42;14.95;;;3.22;;
18407;SDS011;9330;52.210;21.174;2024-01-25T03:01:08;13.23;;;3.65;;
18407;SDS011;9330;52.210;21.174;2024-01-25T03:03:35;13.68;;;3.28;;
18407;SDS011;9330;52.210;21.174;2024-01-25T03:06:02;11.95;;;3.47;;
18407;SDS011;9330;52.210;21.174;2024-01-25T03:08:29;13.07;;;3.33;;
18407;SDS011;9330;52.210;21.174;2024-01-25T03:10:56;13.63;;;3.15;;
18407;SDS011;9330;52.210;21.174;2024-01-25T03:13:23;12.85;;;3.03;;
18407;SDS011;9330;52.210;21.174;2024-01-25T03:15:51;14.20;;;3.20;;
18407;SDS011;9330;52.210;21.174;2024-01-25T03:18:18;10.85;;;2.75;;
18407;SDS011;9330;52.210;21.174;2024-01-25T03:20:45;9.15;;;2.72;;
18407;SDS011;9330;52.210;21.174;2024-01-25T03:23:12;9.45;;;2.85;;
18407;SDS011;9330;52.210;21.174;2024-01-25T03:25:38;11.70;;;2.63;;
18407;SDS011;9330;52.210;21.174;2024-01-25T03:28:05;11.45;;;2.75;;
18407;SDS011;9330;52.210;21.174;2024-01-25T03:30:34;14.88;;;3.00;;
18407;SDS011;9330;52.210;21.174;2024-01-25T03:33:02;12.35;;;2.85;;
18407;SDS011;9330;52.210;21.174;2024-01-25T03:35:29;13.43;;;2.92;;
18407;SDS011;9330;52.210;21.174;2024-01-25T03:37:56;11.13;;;3.05;;
18407;SDS011;9330;52.210;21.174;2024-01-25T03:40:22;11.23;;;3.08;;
18407;SDS011;9330;52.210;21.174;2024-01-25T03:42:49;18.13;;;3.53;;
18407;SDS011;9330;52.210;21.174;2024-01-25T03:45:16;8.95;;;2.80;;
18407;SDS011;9330;52.210;21.174;2024-01-25T03:47:43;13.43;;;3.47;;
18407;SDS011;9330;52.210;21.174;2024-01-25T03:50:14;14.15;;;3.47;;
18407;SDS011;9330;52.210;21.174;2024-01-25T03:52:41;13.25;;;3.50;;
18407;SDS011;9330;52.210;21.174;2024-01-25T03:55:08;15.65;;;3.47;;
18407;SDS011;9330;52.210;21.174;2024-01-25T03:57:35;12.43;;;3.10;;
18407;SDS011;9330;52.210;21.174;2024-01-25T04:00:05;10.90;;;3.25;;
18407;SDS011;9330;52.210;21.174;2024-01-25T04:02:33;14.32;;;2.88;;
18407;SDS011;9330;52.210;21.174;2024-01-25T04:04:59;12.07;;;3.40;;
18407;SDS011;9330;52.210;21.174;2024-01-25T04:07:28;14.30;;;3.15;;
18407;SDS011;9330;52.210;21.174;2024-01-25T04:09:55;13.35;;;2.88;;
18407;SDS011;9330;52.210;21.174;2024-01-25T04:12:21;11.77;;;2.78;;
18407;SDS011;9330;52.210;21.174;2024-01-25T04:14:50;14.18;;;3.25;;
18407;SDS011;9330;52.210;21.174;2024-01-25T04:17:16;14.30;;;3.20;;
18407;SDS011;9330;52.210;21.174;2024-01-25T04:19:43;11.32;;;3.88;;
18407;SDS011;9330;52.210;21.174;2024-01-25T04:22:10;14.25;;;3.42;;
18407;SDS011;9330;52.210;21.174;2024-01-25T04:24:38;9.68;;;3.10;;
18407;SDS011;9330;52.210;21.174;2024-01-25T04:27:05;12.20;;;3.72;;
18407;SDS011;9330;52.210;21.174;2024-01-25T04:29:32;11.70;;;3.53;;
18407;SDS011;9330;52.210;21.174;2024-01-25T04:31:59;16.67;;;3.53;;
18407;SDS011;9330;52.210;21.174;2024-01-25T04:34:26;13.70;;;3.35;;
18407;SDS011;9330;52.210;21.174;2024-01-25T04:36:52;13.40;;;3.65;;
18407;SDS011;9330;52.210;21.174;2024-01-25T04:39:20;15.13;;;3.78;;
18407;SDS011;9330;52.210;21.174;2024-01-25T04:41:48;14.77;;;3.45;;
18407;SDS011;9330;52.210;21.174;2024-01-25T04:44:15;12.88;;;3.63;;
18407;SDS011;9330;52.210;21.174;2024-01-25T04:46:42;13.27;;;3.03;;
18407;SDS011;9330;52.210;21.174;2024-01-25T04:49:08;14.93;;;4.15;;
18407;SDS011;9330;52.210;21.174;2024-01-25T04:51:35;14.25;;;3.75;;
18407;SDS011;9330;52.210;21.174;2024-01-25T04:54:02;16.05;;;3.40;;
18407;SDS011;9330;52.210;21.174;2024-01-25T04:56:29;15.50;;;3.13;;
18407;SDS011;9330;52.210;21.174;2024-01-25T04:58:57;12.35;;;3.38;;
18407;SDS011;9330;52.210;21.174;2024-01-25T05:01:24;14.38;;;3.72;;
18407;SDS011;9330;52.210;21.174;2024-01-25T05:03:51;11.15;;;2.95;;
18407;SDS011;9330;52.210;21.174;2024-01-25T05:06:18;12.23;;;2.85;;
18407;SDS011;9330;52.210;21.174;2024-01-25T05:08:44;10.07;;;2.97;;
18407;SDS011;9330;52.210;21.174;2024-01-25T05:11:11;13.07;;;3.08;;
18407;SDS011;9330;52.210;21.174;2024-01-25T05:13:38;11.38;;;2.47;;
18407;SDS011;9330;52.210;21.174;2024-01-25T05:16:06;11.70;;;2.95;;
18407;SDS011;9330;52.210;21.174;2024-01-25T05:18:33;11.50;;;2.60;;
18407;SDS011;9330;52.210;21.174;2024-01-25T05:21:00;11.43;;;3.22;;
18407;SDS011;9330;52.210;21.174;2024-01-25T05:23:27;13.85;;;2.92;;
18407;SDS011;9330;52.210;21.174;2024-01-25T05:25:54;10.65;;;2.85;;
18407;SDS011;9330;52.210;21.174;2024-01-25T05:28:20;9.55;;;2.50;;
18407;SDS011;9330;52.210;21.174;2024-01-25T05:30:49;7.32;;;2.42;;
18407;SDS011;9330;52.210;21.174;2024-01-25T05:33:17;10.43;;;2.28;;
18407;SDS011;9330;52.210;21.174;2024-01-25T05:35:44;9.02;;;2.30;;
18407;SDS011;9330;52.210;21.174;2024-01-25T05:38:11;10.27;;;2.72;;
18407;SDS011;9330;52.210;21.174;2024-01-25T05:40:37;5.63;;;2.10;;
18407;SDS011;9330;52.210;21.174;2024-01-25T05:43:04;8.82;;;2.15;;
18407;SDS011;9330;52.210;21.174;2024-01-25T05:45:31;8.15;;;2.20;;
18407;SDS011;9330;52.210;21.174;2024-01-25T05:47:58;7.93;;;2.17;;
18407;SDS011;9330;52.210;21.174;2024-01-25T05:50:26;7.65;;;2.22;;
18407;SDS011;9330;52.210;21.174;2024-01-25T05:52:53;7.30;;;2.03;;
18407;SDS011;9330;52.210;21.174;2024-01-25T05:55:20;9.38;;;2.40;;
18407;SDS011;9330;52.210;21.174;2024-01-25T05:57:47;7.45;;;2.28;;
18407;SDS011;9330;52.210;21.174;2024-01-25T06:00:14;10.55;;;2.10;;
18407;SDS011;9330;52.210;21.174;2024-01-25T06:02:41;7.60;;;2.70;;
18407;SDS011;9330;52.210;21.174;2024-01-25T06:05:08;8.43;;;2.35;;
18407;SDS011;9330;52.210;21.174;2024-01-25T06:07:37;7.97;;;2.10;;
18407;SDS011;9330;52.210;21.174;2024-01-25T06:10:04;7.30;;;1.88;;
18407;SDS011;9330;52.210;21.174;2024-01-25T06:12:31;8.02;;;2.15;;
18407;SDS011;9330;52.210;21.174;2024-01-25T06:14:58;6.93;;;2.17;;
18407;SDS011;9330;52.210;21.174;2024-01-25T06:17:25;6.18;;;2.25;;
18407;SDS011;9330;52.210;21.174;2024-01-25T06:19:52;8.30;;;2.22;;
18407;SDS011;9330;52.210;21.174;2024-01-25T06:22:19;9.25;;;2.42;;
18407;SDS011;9330;52.210;21.174;2024-01-25T06:24:48;9.60;;;2.30;;
18407;SDS011;9330;52.210;21.174;2024-01-25T06:27:15;7.60;;;2.58;;
18407;SDS011;9330;52.210;21.174;2024-01-25T06:29:42;10.40;;;2.72;;
18407;SDS011;9330;52.210;21.174;2024-01-25T06:32:09;9.73;;;3.10;;
18407;SDS011;9330;52.210;21.174;2024-01-25T06:34:36;10.93;;;2.92;;
18407;SDS011;9330;52.210;21.174;2024-01-25T06:37:03;10.77;;;3.28;;
18407;SDS011;9330;52.210;21.174;2024-01-25T06:39:30;8.27;;;2.70;;
18407;SDS011;9330;52.210;21.174;2024-01-25T06:41:58;8.10;;;2.67;;
18407;SDS011;9330;52.210;21.174;2024-01-25T06:44:25;8.82;;;2.40;;
18407;SDS011;9330;52.210;21.174;2024-01-25T06:46:52;7.95;;;2.60;;
18407;SDS011;9330;52.210;21.174;2024-01-25T06:49:19;12.70;;;2.63;;
18407;SDS011;9330;52.210;21.174;2024-01-25T06:51:45;7.65;;;2.30;;
18407;SDS011;9330;52.210;21.174;2024-01-25T06:54:12;10.73;;;2.67;;
18407;SDS011;9330;52.210;21.174;2024-01-25T06:56:39;6.72;;;1.70;;
18407;SDS011;9330;52.210;21.174;2024-01-25T06:59:07;11.73;;;2.83;;
18407;SDS011;9330;52.210;21.174;2024-01-25T07:01:34;9.90;;;2.58;;
18407;SDS011;9330;52.210;21.174;2024-01-25T07:04:01;8.55;;;2.35;;
18407;SDS011;9330;52.210;21.174;2024-01-25T07:06:29;8.52;;;2.53;;
18407;SDS011;9330;52.210;21.174;2024-01-25T07:08:55;11.40;;;2.80;;
18407;SDS011;9330;52.210;21.174;2024-01-25T07:11:22;11.52;;;2.75;;
18407;SDS011;9330;52.210;21.174;2024-01-25T07:13:49;10.45;;;3.25;;
18407;SDS011;9330;52.210;21.174;2024-01-25T07:16:18;8.32;;;2.47;;
18407;SDS011;9330;52.210;21.174;2024-01-25T07:18:45;9.75;;;2.55;;
18407;SDS011;9330;52.210;21.174;2024-01-25T07:21:11;10.30;;;2.25;;
18407;SDS011;9330;52.210;21.174;2024-01-25T07:23:38;13.52;;;2.70;;
18407;SDS011;9330;52.210;21.174;2024-01-25T07:26:05;10.38;;;2.50;;
18407;SDS011;9330;52.210;21.174;2024-01-25T07:28:32;10.73;;;2.83;;
18407;SDS011;9330;52.210;21.174;2024-01-25T07:30:59;12.80;;;2.90;;
18407;SDS011;9330;52.210;21.174;2024-01-25T07:33:27;9.07;;;2.70;;
18407;SDS011;9330;52.210;21.174;2024-01-25T07:35:53;9.73;;;2.47;;
18407;SDS011;9330;52.210;21.174;2024-01-25T07:38:23;6.93;;;2.05;;
18407;SDS011;9330;52.210;21.174;2024-01-25T07:40:50;8.50;;;2.55;;
18407;SDS011;9330;52.210;21.174;2024-01-25T07:43:17;9.73;;;2.53;;
18407;SDS011;9330;52.210;21.174;2024-01-25T07:45:44;8.13;;;2.13;;
18407;SDS011;9330;52.210;21.174;2024-01-25T07:48:11;10.00;;;2.17;;
18407;SDS011;9330;52.210;21.174;2024-01-25T07:50:39;9.75;;;2.50;;
18407;SDS011;9330;52.210;21.174;2024-01-25T07:53:06;9.90;;;2.22;;
18407;SDS011;9330;52.210;21.174;2024-01-25T07:55:33;8.40;;;2.33;;
18407;SDS011;9330;52.210;21.174;2024-01-25T07:58:00;8.45;;;2.25;;
18407;SDS011;9330;52.210;21.174;2024-01-25T08:00:27;9.02;;;2.30;;
18407;SDS011;9330;52.210;21.174;2024-01-25T08:02:54;4.53;;;1.80;;
18407;SDS011;9330;52.210;21.174;2024-01-25T08:05:20;5.20;;;2.20;;
18407;SDS011;9330;52.210;21.174;2024-01-25T08:07:49;5.95;;;1.80;;
18407;SDS011;9330;52.210;21.174;2024-01-25T08:10:16;8.07;;;1.98;;
18407;SDS011;9330;52.210;21.174;2024-01-25T08:12:42;5.72;;;1.80;;
18407;SDS011;9330;52.210;21.174;2024-01-25T08:15:12;5.95;;;1.63;;
18407;SDS011;9330;52.210;21.174;2024-01-25T08:17:39;7.78;;;1.83;;
18407;SDS011;9330;52.210;21.174;2024-01-25T08:20:06;6.13;;;1.70;;
18407;SDS011;9330;52.210;21.174;2024-01-25T08:22:34;5.78;;;2.17;;
18407;SDS011;9330;52.210;21.174;2024-01-25T08:25:03;6.10;;;1.70;;
18407;SDS011;9330;52.210;21.174;2024-01-25T08:27:30;5.57;;;1.70;;
18407;SDS011;9330;52.210;21.174;2024-01-25T08:29:57;5.85;;;1.65;;
18407;SDS011;9330;52.210;21.174;2024-01-25T08:32:24;4.93;;;1.58;;
18407;SDS011;9330;52.210;21.174;2024-01-25T08:34:50;4.10;;;1.63;;
18407;SDS011;9330;52.210;21.174;2024-01-25T08:37:17;4.88;;;1.33;;
18407;SDS011;9330;52.210;21.174;2024-01-25T08:39:44;6.63;;;1.60;;
18407;SDS011;9330;52.210;21.174;2024-01-25T08:42:15;3.20;;;1.75;;
18407;SDS011;9330;52.210;21.174;2024-01-25T08:44:42;5.35;;;1.35;;
18407;SDS011;9330;52.210;21.174;2024-01-25T08:47:14;2.50;;;1.30;;
18407;SDS011;9330;52.210;21.174;2024-01-25T08:49:41;2.00;;;1.10;;
18407;SDS011;9330;52.210;21.174;2024-01-25T08:52:08;4.38;;;1.48;;
18407;SDS011;9330;52.210;21.174;2024-01-25T08:54:35;2.38;;;1.20;;
18407;SDS011;9330;52.210;21.174;2024-01-25T08:57:06;3.33;;;1.38;;
18407;SDS011;9330;52.210;21.174;2024-01-25T08:59:42;6.18;;;1.60;;
18407;SDS011;9330;52.210;21.174;2024-01-25T09:02:09;1.75;;;1.13;;
18407;SDS011;9330;52.210;21.174;2024-01-25T09:04:38;4.28;;;1.30;;
18407;SDS011;9330;52.210;21.174;2024-01-25T09:07:08;3.33;;;1.38;;
18407;SDS011;9330;52.210;21.174;2024-01-25T09:09:37;3.65;;;1.35;;
18407;SDS011;9330;52.210;21.174;2024-01-25T09:12:04;2.28;;;1.00;;
18407;SDS011;9330;52.210;21.174;2024-01-25T09:14:33;3.63;;;1.42;;
18407;SDS011;9330;52.210;21.174;2024-01-25T09:17:02;2.80;;;1.30;;
18407;SDS011;9330;52.210;21.174;2024-01-25T09:19:30;1.35;;;1.00;;
18407;SDS011;9330;52.210;21.174;2024-01-25T09:21:57;2.40;;;1.40;;
18407;SDS011;9330;52.210;21.174;2024-01-25T09:24:26;1.88;;;1.10;;
18407;SDS011;9330;52.210;21.174;2024-01-25T09:26:53;3.53;;;1.23;;
18407;SDS011;9330;52.210;21.174;2024-01-25T09:29:20;2.00;;;1.20;;
18407;SDS011;9330;52.210;21.174;2024-01-25T09:31:47;3.55;;;1.30;;
18407;SDS011;9330;52.210;21.174;2024-01-25T09:34:15;2.60;;;1.20;;
18407;SDS011;9330;52.210;21.174;2024-01-25T09:36:42;2.78;;;1.33;;
18407;SDS011;9330;52.210;21.174;2024-01-25T09:39:09;2.00;;;1.25;;
18407;SDS011;9330;52.210;21.174;2024-01-25T09:41:36;3.45;;;1.42;;
18407;SDS011;9330;52.210;21.174;2024-01-25T09:44:04;5.93;;;4.47;;
18407;SDS011;9330;52.210;21.174;2024-01-25T09:46:32;2.50;;;1.60;;
18407;SDS011;9330;52.210;21.174;2024-01-25T09:49:00;1.85;;;1.20;;
18407;SDS011;9330;52.210;21.174;2024-01-25T09:51:28;24.25;;;9.27;;
18407;SDS011;9330;52.210;21.174;2024-01-25T09:54:02;4.28;;;2.30;;
18407;SDS011;9330;52.210;21.174;2024-01-25T09:56:31;2.72;;;1.58;;
18407;SDS011;9330;52.210;21.174;2024-01-25T09:58:59;1.77;;;1.25;;
18407;SDS011;9330;52.210;21.174;2024-01-25T10:01:26;1.80;;;1.40;;
18407;SDS011;9330;52.210;21.174;2024-01-25T10:03:53;2.10;;;1.25;;
18407;SDS011;9330;52.210;21.174;2024-01-25T10:06:21;2.70;;;1.40;;
18407;SDS011;9330;52.210;21.174;2024-01-25T10:08:51;2.20;;;1.45;;
18407;SDS011;9330;52.210;21.174;2024-01-25T10:11:18;3.50;;;1.52;;
18407;SDS011;9330;52.210;21.174;2024-01-25T10:13:46;3.35;;;1.50;;
18407;SDS011;9330;52.210;21.174;2024-01-25T10:16:16;1.77;;;1.15;;
18407;SDS011;9330;52.210;21.174;2024-01-25T10:18:43;2.25;;;1.60;;
18407;SDS011;9330;52.210;21.174;2024-01-25T10:21:13;2.80;;;1.42;;
18407;SDS011;9330;52.210;21.174;2024-01-25T10:23:43;4.10;;;1.98;;
18407;SDS011;9330;52.210;21.174;2024-01-25T10:26:12;3.28;;;1.77;;
18407;SDS011;9330;52.210;21.174;2024-01-25T10:28:39;2.33;;;1.20;;
18407;SDS011;9330;52.210;21.174;2024-01-25T10:31:06;3.28;;;1.55;;
18407;SDS011;9330;52.210;21.174;2024-01-25T10:33:34;3.50;;;1.77;;
18407;SDS011;9330;52.210;21.174;2024-01-25T10:36:04;3.90;;;1.58;;
18407;SDS011;9330;52.210;21.174;2024-01-25T10:38:34;1.95;;;1.30;;
18407;SDS011;9330;52.210;21.174;2024-01-25T10:41:03;2.70;;;1.45;;
18407;SDS011;9330;52.210;21.174;2024-01-25T10:43:32;1.80;;;1.20;;
18407;SDS011;9330;52.210;21.174;2024-01-25T10:45:59;2.40;;;1.15;;
18407;SDS011;9330;52.210;21.174;2024-01-25T10:48:26;4.35;;;1.63;;
18407;SDS011;9330;52.210;21.174;2024-01-25T10:50:54;3.05;;;1.17;;
18407;SDS011;9330;52.210;21.174;2024-01-25T10:53:22;1.70;;;0.80;;
18407;SDS011;9330;52.210;21.174;2024-01-25T10:55:49;2.63;;;1.40;;
18407;SDS011;9330;52.210;21.174;2024-01-25T10:58:16;4.10;;;1.10;;
18407;SDS011;9330;52.210;21.174;2024-01-25T11:00:50;2.58;;;1.10;;
18407;SDS011;9330;52.210;21.174;2024-01-25T11:03:18;2.42;;;1.30;;
18407;SDS011;9330;52.210;21.174;2024-01-25T11:05:45;4.45;;;2.30;;
18407;SDS011;9330;52.210;21.174;2024-01-25T11:08:17;3.97;;;1.88;;
18407;SDS011;9330;52.210;21.174;2024-01-25T11:10:48;5.30;;;1.50;;
18407;SDS011;9330;52.210;21.174;2024-01-25T11:13:17;2.50;;;1.15;;
18407;SDS011;9330;52.210;21.174;2024-01-25T11:15:51;1.77;;;0.98;;
18407;SDS011;9330;52.210;21.174;2024-01-25T11:18:18;1.92;;;0.80;;
18407;SDS011;9330;52.210;21.174;2024-01-25T11:20:46;2.22;;;0.90;;
18407;SDS011;9330;52.210;21.174;2024-01-25T11:23:14;2.05;;;1.00;;
18407;SDS011;9330;52.210;21.174;2024-01-25T11:25:44;1.65;;;0.90;;
18407;SDS011;9330;52.210;21.174;2024-01-25T11:28:13;1.92;;;0.90;;
18407;SDS011;9330;52.210;21.174;2024-01-25T11:30:41;3.15;;;1.02;;
18407;SDS011;9330;52.210;21.174;2024-01-25T11:33:10;1.55;;;0.80;;
18407;SDS011;9330;52.210;21.174;2024-01-25T11:35:39;2.85;;;1.00;;
18407;SDS011;9330;52.210;21.174;2024-01-25T11:38:07;3.33;;;1.05;;
18407;SDS011;9330;52.210;21.174;2024-01-25T11:40:34;1.73;;;0.80;;
18407;SDS011;9330;52.210;21.174;2024-01-25T11:43:01;2.25;;;0.90;;
18407;SDS011;9330;52.210;21.174;2024-01-25T11:45:28;2.08;;;0.90;;
18407;SDS011;9330;52.210;21.174;2024-01-25T11:47:55;1.42;;;0.77;;
18407;SDS011;9330;52.210;21.174;2024-01-25T11:50:23;2.33;;;1.13;;
18407;SDS011;9330;52.210;21.174;2024-01-25T11:52:50;1.63;;;0.98;;
18407;SDS011;9330;52.210;21.174;2024-01-25T11:55:17;1.85;;;1.02;;
18407;SDS011;9330;52.210;21.174;2024-01-25T11:57:44;3.33;;;1.10;;
18407;SDS011;9330;52.210;21.174;2024-01-25T12:00:13;1.50;;;0.77;;
18407;SDS011;9330;52.210;21.174;2024-01-25T12:02:41;2.53;;;1.02;;
18407;SDS011;9330;52.210;21.174;2024-01-25T12:05:08;2.83;;;0.88;;
18407;SDS011;9330;52.210;21.174;2024-01-25T12:07:38;1.98;;;1.20;;
18407;SDS011;9330;52.210;21.174;2024-01-25T12:10:06;4.03;;;1.52;;
18407;SDS011;9330;52.210;21.174;2024-01-25T12:12:35;1.48;;;1.08;;
18407;SDS011;9330;52.210;21.174;2024-01-25T12:15:04;3.28;;;1.30;;
18407;SDS011;9330;52.210;21.174;2024-01-25T12:17:32;1.80;;;1.00;;
18407;SDS011;9330;52.210;21.174;2024-01-25T12:20:01;3.13;;;1.40;;
18407;SDS011;9330;52.210;21.174;2024-01-25T12:22:28;2.00;;;1.27;;
18407;SDS011;9330;52.210;21.174;2024-01-25T12:24:57;3.55;;;1.52;;
18407;SDS011;9330;52.210;21.174;2024-01-25T12:27:25;1.33;;;1.00;;
18407;SDS011;9330;52.210;21.174;2024-01-25T12:29:52;2.30;;;0.90;;
18407;SDS011;9330;52.210;21.174;2024-01-25T12:32:20;1.77;;;0.85;;
18407;SDS011;9330;52.210;21.174;2024-01-25T12:34:53;1.23;;;0.60;;
18407;SDS011;9330;52.210;21.174;2024-01-25T12:37:20;1.08;;;0.68;;
18407;SDS011;9330;52.210;21.174;2024-01-25T12:39:47;2.47;;;1.25;;
18407;SDS011;9330;52.210;21.174;2024-01-25T12:42:16;2.63;;;0.98;;
18407;SDS011;9330;52.210;21.174;2024-01-25T12:44:43;2.22;;;1.00;;
18407;SDS011;9330;52.210;21.174;2024-01-25T12:47:10;2.42;;;1.30;;
18407;SDS011;9330;52.210;21.174;2024-01-25T12:49:39;3.15;;;1.30;;
18407;SDS011;9330;52.210;21.174;2024-01-25T12:52:06;1.17;;;1.00;;
18407;SDS011;9330;52.210;21.174;2024-01-25T12:54:34;1.45;;;1.27;;
18407;SDS011;9330;52.210;21.174;2024-01-25T12:57:01;2.33;;;1.25;;
18407;SDS011;9330;52.210;21.174;2024-01-25T12:59:29;2.53;;;1.40;;
18407;SDS011;9330;52.210;21.174;2024-01-25T13:01:56;1.55;;;1.20;;
18407;SDS011;9330;52.210;21.174;2024-01-25T13:04:23;1.70;;;1.42;;
18407;SDS011;9330;52.210;21.174;2024-01-25T13:06:51;3.15;;;1.65;;
18407;SDS011;9330;52.210;21.174;2024-01-25T13:09:19;1.90;;;1.27;;
18407;SDS011;9330;52.210;21.174;2024-01-25T13:11:46;1.83;;;1.30;;
18407;SDS011;9330;52.210;21.174;2024-01-25T13:14:13;2.15;;;1.33;;
18407;SDS011;9330;52.210;21.174;2024-01-25T13:16:41;2.70;;;1.52;;
18407;SDS011;9330;52.210;21.174;2024-01-25T13:19:08;2.50;;;1.33;;
18407;SDS011;9330;52.210;21.174;2024-01-25T13:21:36;2.35;;;1.30;;
18407;SDS011;9330;52.210;21.174;2024-01-25T13:24:04;2.58;;;1.40;;
18407;SDS011;9330;52.210;21.174;2024-01-25T13:26:31;3.58;;;1.58;;
18407;SDS011;9330;52.210;21.174;2024-01-25T13:28:58;3.60;;;1.40;;
18407;SDS011;9330;52.210;21.174;2024-01-25T13:31:25;4.93;;;1.85;;
18407;SDS011;9330;52.210;21.174;2024-01-25T13:33:53;2.10;;;1.50;;
18407;SDS011;9330;52.210;21.174;2024-01-25T13:36:20;2.45;;;1.40;;
18407;SDS011;9330;52.210;21.174;2024-01-25T13:38:47;2.53;;;1.58;;
18407;SDS011;9330;52.210;21.174;2024-01-25T13:41:14;2.38;;;1.33;;
18407;SDS011;9330;52.210;21.174;2024-01-25T13:43:41;2.47;;;1.30;;
18407;SDS011;9330;52.210;21.174;2024-01-25T13:46:07;2.25;;;0.90;;
18407;SDS011;9330;52.210;21.174;2024-01-25T13:48:34;2.35;;;1.23;;
18407;SDS011;9330;52.210;21.174;2024-01-25T13:51:02;2.03;;;1.20;;
18407;SDS011;9330;52.210;21.174;2024-01-25T13:53:29;2.38;;;1.00;;
18407;SDS011;9330;52.210;21.174;2024-01-25T13:55:56;2.65;;;1.23;;
18407;SDS011;9330;52.210;21.174;2024-01-25T13:58:23;2.47;;;1.25;;
18407;SDS011;9330;52.210;21.174;2024-01-25T14:00:50;2.15;;;1.30;;
18407;SDS011;9330;52.210;21.174;2024-01-25T14:03:17;2.53;;;1.40;;
18407;SDS011;9330;52.210;21.174;2024-01-25T14:05:43;3.65;;;1.35;;
18407;SDS011;9330;52.210;21.174;2024-01-25T14:08:12;2.85;;;1.40;;
18407;SDS011;9330;52.210;21.174;2024-01-25T14:10:38;2.15;;;1.40;;
18407;SDS011;9330;52.210;21.174;2024-01-25T14:13:05;2.00;;;1.02;;
18407;SDS011;9330;52.210;21.174;2024-01-25T14:15:32;1.58;;;1.05;;
18407;SDS011;9330;52.210;21.174;2024-01-25T14:18:00;2.05;;;1.33;;
18407;SDS011;9330;52.210;21.174;2024-01-25T14:20:27;1.60;;;1.00;;
18407;SDS011;9330;52.210;21.174;2024-01-25T14:22:54;2.10;;;1.10;;
18407;SDS011;9330;52.210;21.174;2024-01-25T14:25:22;3.22;;;1.30;;
18407;SDS011;9330;52.210;21.174;2024-01-25T14:27:49;2.08;;;1.00;;
18407;SDS011;9330;52.210;21.174;2024-01-25T14:30:16;2.33;;;1.05;;
18407;SDS011;9330;52.210;21.174;2024-01-25T14:32:43;1.77;;;1.10;;
18407;SDS011;9330;52.210;21.174;2024-01-25T14:35:11;2.22;;;1.13;;
18407;SDS011;9330;52.210;21.174;2024-01-25T14:37:38;2.38;;;1.40;;
18407;SDS011;9330;52.210;21.174;2024-01-25T14:40:06;1.92;;;1.33;;
18407;SDS011;9330;52.210;21.174;2024-01-25T14:42:35;2.22;;;1.10;;
18407;SDS011;9330;52.210;21.174;2024-01-25T14:45:03;1.83;;;1.17;;
18407;SDS011;9330;52.210;21.174;2024-01-25T14:47:30;3.83;;;1.05;;